createdAt,value
2022-10-28T00:01:01.467Z,7.10
2022-10-28T00:03:27.881Z,7.38
2022-10-28T00:05:54.411Z,7.20
2022-10-28T00:08:20.848Z,7.13
2022-10-28T00:10:47.254Z,7.20
2022-10-28T00:13:13.677Z,7.03
2022-10-28T00:15:40.221Z,7.07
2022-10-28T00:18:06.607Z,6.90
2022-10-28T00:20:33.020Z,6.75
2022-10-28T00:22:59.487Z,6.13
2022-10-28T00:25:25.938Z,6.20
2022-10-28T00:27:52.893Z,6.45
2022-10-28T00:30:19.879Z,5.95
2022-10-28T00:32:47.989Z,6.28
2022-10-28T00:35:14.478Z,6.80
2022-10-28T00:37:40.931Z,6.97
2022-10-28T00:40:07.932Z,6.75
2022-10-28T00:42:34.447Z,6.60
2022-10-28T00:45:02.414Z,5.85
2022-10-28T00:47:37.758Z,6.20
2022-10-28T00:50:20.439Z,6.60
2022-10-28T00:52:51.894Z,6.13
2022-10-28T00:55:19.621Z,6.50
2022-10-28T00:57:47.133Z,5.88
2022-10-28T01:00:14.803Z,6.38
2022-10-28T01:02:47.959Z,5.22
2022-10-28T01:05:26.798Z,6.45
2022-10-28T01:08:01.245Z,5.90
2022-10-28T01:11:05.080Z,6.88
2022-10-28T01:13:40.555Z,6.43
2022-10-28T01:28:47.767Z,5.57
2022-10-28T01:31:42.330Z,6.00
2022-10-28T01:34:26.995Z,6.43
2022-10-28T01:36:56.835Z,6.05
2022-10-28T01:39:30.738Z,5.60
2022-10-28T01:42:07.970Z,5.40
2022-10-28T01:45:01.672Z,6.53
2022-10-28T01:48:00.319Z,6.03
2022-10-28T01:50:44.473Z,6.18
2022-10-28T01:53:16.794Z,6.20
2022-10-28T01:55:47.450Z,5.68
2022-10-28T01:58:18.883Z,5.95
2022-10-28T02:00:47.912Z,5.82
2022-10-28T02:03:16.206Z,5.22
2022-10-28T02:05:43.707Z,5.70
2022-10-28T02:08:19.310Z,6.18
2022-10-28T02:10:53.575Z,5.50
2022-10-28T02:13:28.843Z,5.88
2022-10-28T02:16:20.547Z,5.03
2022-10-28T02:19:22.424Z,6.05
2022-10-28T02:22:13.074Z,5.70
2022-10-28T02:27:18.240Z,5.30
2022-10-28T02:30:00.637Z,5.32
2022-10-28T02:32:30.745Z,5.45
2022-10-28T02:35:00.999Z,8.00
2022-10-28T02:37:33.550Z,7.57
2022-10-28T02:40:08.358Z,7.13
2022-10-28T02:42:38.852Z,5.50
2022-10-28T02:47:44.925Z,6.25
2022-10-28T02:50:18.276Z,5.13
2022-10-28T02:52:51.473Z,6.93
2022-10-28T02:55:20.810Z,6.30
2022-10-28T02:57:49.177Z,6.03
2022-10-28T03:00:19.438Z,5.88
2022-10-28T03:02:46.169Z,5.80
2022-10-28T03:05:14.188Z,5.13
2022-10-28T03:07:40.686Z,5.32
2022-10-28T03:10:08.131Z,6.45
2022-10-28T03:12:34.606Z,5.28
2022-10-28T03:15:01.734Z,6.15
2022-10-28T03:17:28.346Z,5.95
2022-10-28T03:19:54.757Z,6.43
2022-10-28T03:22:21.191Z,7.05
2022-10-28T03:24:47.591Z,5.88
2022-10-28T03:27:14.020Z,6.55
2022-10-28T03:29:44.863Z,6.85
2022-10-28T03:32:12.663Z,5.97
2022-10-28T03:34:39.357Z,5.95
2022-10-28T03:37:05.769Z,6.45
2022-10-28T03:39:32.244Z,6.07
2022-10-28T03:41:58.696Z,5.95
2022-10-28T03:44:25.200Z,6.63
2022-10-28T03:46:51.745Z,5.55
2022-10-28T03:49:18.148Z,6.10
2022-10-28T03:51:44.621Z,7.07
2022-10-28T03:54:11.073Z,5.47
2022-10-28T03:56:40.375Z,6.85
2022-10-28T03:59:13.183Z,6.32
2022-10-28T04:01:41.644Z,7.43
2022-10-28T04:04:08.152Z,6.28
2022-10-28T04:06:34.599Z,6.13
2022-10-28T04:09:01.044Z,6.05
2022-10-28T04:11:27.498Z,6.00
2022-10-28T04:13:53.950Z,5.72
2022-10-28T04:16:20.387Z,6.22
2022-10-28T04:18:46.907Z,6.13
2022-10-28T04:21:13.558Z,5.50
2022-10-28T04:23:39.975Z,5.57
2022-10-28T04:26:06.402Z,5.88
2022-10-28T04:28:33.012Z,5.40
2022-10-28T04:30:59.739Z,6.22
2022-10-28T04:33:26.174Z,5.75
2022-10-28T04:35:52.567Z,5.13
2022-10-28T04:38:19.030Z,5.25
2022-10-28T04:40:49.132Z,6.30
2022-10-28T04:43:16.360Z,6.85
2022-10-28T04:45:42.774Z,6.78
2022-10-28T04:48:10.536Z,7.55
2022-10-28T04:50:37.045Z,7.28
2022-10-28T04:53:03.729Z,5.97
2022-10-28T04:55:30.212Z,6.82
2022-10-28T04:57:58.401Z,6.70
2022-10-28T05:00:26.193Z,6.35
2022-10-28T05:02:55.208Z,6.22
2022-10-28T05:05:28.173Z,7.10
2022-10-28T05:07:57.499Z,6.88
2022-10-28T05:10:30.119Z,6.85
2022-10-28T05:13:13.750Z,7.68
2022-10-28T05:15:51.236Z,6.50
2022-10-28T05:18:21.148Z,6.78
2022-10-28T05:21:09.602Z,6.85
2022-10-28T05:23:49.929Z,6.93
2022-10-28T05:26:22.434Z,6.90
2022-10-28T05:28:58.637Z,8.23
2022-10-28T05:31:39.198Z,6.95
2022-10-28T05:34:09.050Z,7.20
2022-10-28T05:36:54.642Z,6.40
2022-10-28T05:39:39.998Z,7.05
2022-10-28T05:42:10.118Z,6.47
2022-10-28T05:44:41.488Z,6.50
2022-10-28T05:47:14.761Z,6.75
2022-10-28T05:49:44.876Z,6.43
2022-10-28T05:52:19.720Z,6.93
2022-10-28T05:54:47.011Z,7.15
2022-10-28T05:57:20.404Z,6.82
2022-10-28T05:59:53.178Z,6.57
2022-10-28T06:02:22.750Z,7.32
2022-10-28T06:04:54.678Z,6.83
2022-10-28T06:07:27.706Z,6.78
2022-10-28T06:09:54.979Z,6.90
2022-10-28T06:12:25.594Z,6.90
2022-10-28T06:14:52.943Z,5.70
2022-10-28T06:17:27.965Z,7.35
2022-10-28T06:20:01.932Z,6.18
2022-10-28T06:22:36.713Z,7.15
2022-10-28T06:25:07.737Z,6.88
2022-10-28T06:27:34.919Z,6.88
2022-10-28T06:30:06.352Z,7.50
2022-10-28T06:32:33.614Z,7.50
2022-10-28T06:35:01.189Z,8.23
2022-10-28T06:37:55.479Z,7.28
2022-10-28T06:40:30.047Z,9.05
2022-10-28T06:43:11.654Z,8.43
2022-10-28T06:45:39.051Z,7.93
2022-10-28T06:48:10.786Z,7.55
2022-10-28T06:50:44.382Z,6.85
2022-10-28T06:53:11.540Z,8.70
2022-10-28T06:55:44.182Z,7.22
2022-10-28T06:58:11.490Z,7.63
2022-10-28T07:00:42.785Z,8.10
2022-10-28T07:03:39.978Z,7.95
2022-10-28T07:06:10.190Z,7.63
2022-10-28T07:08:46.378Z,7.72
2022-10-28T07:11:25.188Z,7.32
2022-10-28T07:13:55.243Z,7.50
2022-10-28T07:16:28.139Z,7.13
2022-10-28T07:19:01.410Z,8.15
2022-10-28T07:21:40.236Z,7.00
2022-10-28T07:24:18.563Z,7.40
2022-10-28T07:26:54.233Z,8.75
2022-10-28T07:29:24.433Z,8.85
2022-10-28T07:31:57.693Z,7.05
2022-10-28T07:34:29.071Z,11.20
2022-10-28T07:37:14.701Z,7.60
2022-10-28T07:39:44.713Z,7.03
2022-10-28T07:45:16.836Z,7.47
2022-10-28T07:47:52.610Z,7.43
2022-10-28T07:50:27.037Z,7.07
2022-10-28T07:52:59.244Z,7.28
2022-10-28T07:55:31.572Z,6.03
2022-10-28T07:58:01.884Z,8.10
2022-10-28T08:00:30.777Z,7.18
2022-10-28T08:03:02.228Z,8.00
2022-10-28T08:05:41.856Z,7.70
2022-10-28T08:08:27.999Z,8.27
2022-10-28T08:14:53.753Z,7.60
2022-10-28T08:17:24.667Z,7.22
2022-10-28T08:20:31.579Z,7.28
2022-10-28T08:23:15.837Z,7.47
2022-10-28T08:25:51.572Z,7.70
2022-10-28T08:33:45.225Z,7.80
2022-10-28T08:36:44.523Z,7.60
2022-10-28T08:44:09.302Z,7.72
2022-10-28T08:46:57.719Z,6.78
2022-10-28T08:49:30.143Z,7.78
2022-10-28T08:52:06.311Z,7.53
2022-10-28T08:54:41.065Z,5.88
2022-10-28T08:57:19.504Z,6.50
2022-10-28T08:59:50.595Z,6.32
2022-10-28T09:02:52.738Z,6.03
2022-10-28T09:05:29.047Z,6.10
2022-10-28T09:07:57.870Z,6.80
2022-10-28T09:11:02.164Z,6.57
2022-10-28T09:14:03.001Z,6.25
2022-10-28T09:16:58.271Z,6.25
2022-10-28T09:19:51.781Z,5.60
2022-10-28T09:22:39.331Z,6.03
2022-10-28T09:25:31.323Z,4.57
2022-10-28T09:28:21.815Z,5.25
2022-10-28T09:31:27.624Z,5.40
2022-10-28T09:34:35.861Z,4.18
2022-10-28T09:37:23.810Z,6.03
2022-10-28T09:39:59.902Z,3.95
2022-10-28T09:42:33.186Z,4.72
2022-10-28T09:45:07.457Z,4.75
2022-10-28T09:47:47.568Z,4.90
2022-10-28T09:50:21.137Z,4.10
2022-10-28T09:53:15.112Z,5.57
2022-10-28T09:55:45.573Z,3.95
2022-10-28T09:58:14.223Z,4.15
2022-10-28T10:00:44.319Z,4.53
2022-10-28T10:03:15.604Z,3.45
2022-10-28T10:05:47.769Z,4.78
2022-10-28T10:08:18.524Z,3.25
2022-10-28T10:11:05.402Z,3.45
2022-10-28T10:13:42.380Z,4.40
2022-10-28T10:16:20.648Z,3.97
2022-10-28T10:18:51.612Z,3.20
2022-10-28T10:21:47.623Z,4.40
2022-10-28T10:24:46.638Z,4.32
2022-10-28T10:27:22.644Z,4.15
2022-10-28T10:29:51.931Z,3.33
2022-10-28T10:32:21.503Z,3.22
2022-10-28T10:35:04.444Z,3.60
2022-10-28T10:38:05.820Z,3.55
2022-10-28T10:40:47.389Z,3.58
2022-10-28T10:43:25.329Z,2.85
2022-10-28T10:46:00.788Z,3.08
2022-10-28T10:48:34.030Z,3.40
2022-10-28T10:51:07.196Z,4.57
2022-10-28T10:53:35.507Z,3.55
2022-10-28T10:56:05.118Z,2.95
2022-10-28T10:58:36.634Z,2.88
2022-10-28T11:01:09.085Z,3.22
2022-10-28T11:03:45.970Z,3.67
2022-10-28T11:06:26.480Z,3.08
2022-10-28T11:09:02.773Z,2.60
2022-10-28T11:11:41.162Z,2.78
2022-10-28T11:14:12.712Z,2.67
2022-10-28T11:16:52.494Z,2.85
2022-10-28T11:19:27.936Z,2.70
2022-10-28T11:22:15.779Z,2.45
2022-10-28T11:24:48.278Z,3.03
2022-10-28T11:27:39.568Z,2.85
2022-10-28T11:30:13.146Z,3.35
2022-10-28T11:33:08.488Z,3.10
2022-10-28T11:36:21.869Z,2.40
2022-10-28T11:39:17.214Z,2.67
2022-10-28T11:41:53.690Z,3.00
2022-10-28T11:44:51.606Z,3.63
2022-10-28T11:47:37.737Z,2.33
2022-10-28T11:50:38.929Z,2.45
2022-10-28T11:53:31.685Z,2.30
2022-10-28T11:56:04.019Z,2.20
2022-10-28T11:58:39.856Z,1.92
2022-10-28T12:01:20.093Z,2.65
2022-10-28T12:04:14.680Z,2.50
2022-10-28T12:07:09.295Z,2.40
2022-10-28T12:10:04.568Z,2.30
2022-10-28T12:12:47.244Z,3.58
2022-10-28T12:15:37.785Z,2.22
2022-10-28T12:18:45.846Z,2.60
2022-10-28T12:21:12.478Z,2.60
2022-10-28T12:23:41.447Z,2.75
2022-10-28T12:26:12.859Z,2.75
2022-10-28T12:29:03.413Z,2.75
2022-10-28T12:31:44.560Z,2.20
2022-10-28T12:34:24.651Z,2.25
2022-10-28T12:39:53.997Z,2.35
2022-10-28T12:42:48.987Z,2.63
2022-10-28T12:45:18.671Z,2.40
2022-10-28T12:48:05.125Z,2.67
2022-10-28T12:50:40.170Z,2.13
2022-10-28T12:53:33.140Z,2.65
2022-10-28T12:56:04.571Z,2.10
2022-10-28T12:58:51.173Z,2.20
2022-10-28T13:01:21.151Z,2.85
2022-10-28T13:06:38.081Z,2.20
2022-10-28T13:09:20.091Z,2.20
2022-10-28T13:12:11.131Z,2.45
2022-10-28T13:18:11.997Z,2.05
2022-10-28T13:20:43.961Z,2.53
2022-10-28T13:23:24.446Z,2.00
2022-10-28T13:26:17.721Z,2.08
2022-10-28T13:28:54.890Z,2.25
2022-10-28T13:31:21.907Z,2.00
2022-10-28T13:33:55.729Z,2.03
2022-10-28T13:36:28.849Z,2.00
2022-10-28T13:39:02.478Z,2.67
2022-10-28T13:41:30.676Z,2.45
2022-10-28T13:44:13.418Z,2.20
2022-10-28T13:46:58.684Z,2.45
2022-10-28T13:49:32.662Z,2.88
2022-10-28T13:52:13.281Z,2.08
2022-10-28T13:54:42.889Z,2.47
2022-10-28T13:57:44.296Z,2.03
2022-10-28T14:00:21.368Z,1.90
2022-10-28T14:02:54.607Z,2.25
2022-10-28T14:05:36.254Z,2.85
2022-10-28T14:08:07.858Z,2.45
2022-10-28T14:10:40.092Z,2.65
2022-10-28T14:13:18.243Z,2.40
2022-10-28T14:15:45.421Z,3.15
2022-10-28T14:18:42.579Z,2.40
2022-10-28T14:21:02.528Z,2.03
2022-10-28T14:23:29.137Z,2.33
2022-10-28T14:25:56.343Z,2.40
2022-10-28T14:28:29.531Z,2.80
2022-10-28T14:31:08.681Z,2.30
2022-10-28T14:33:37.918Z,2.13
2022-10-28T14:36:53.093Z,3.22
2022-10-28T14:39:36.454Z,3.03
2022-10-28T14:42:21.898Z,2.30
2022-10-28T14:44:57.954Z,2.08
2022-10-28T14:47:30.557Z,2.60
2022-10-28T14:50:23.698Z,2.08
2022-10-28T14:52:52.654Z,1.88
2022-10-28T14:55:27.785Z,2.08
2022-10-28T14:57:54.970Z,2.20
2022-10-28T15:00:25.857Z,2.40
2022-10-28T15:02:52.524Z,4.78
2022-10-28T15:05:26.986Z,3.47
2022-10-28T15:07:57.921Z,2.97
2022-10-28T15:10:31.296Z,3.25
2022-10-28T15:12:59.016Z,2.83
2022-10-28T15:15:33.191Z,4.47
2022-10-28T15:18:01.899Z,4.72
2022-10-28T15:20:32.546Z,11.30
2022-10-28T15:23:23.201Z,7.57
2022-10-28T15:26:11.511Z,7.22
2022-10-28T15:28:39.555Z,6.00
2022-10-28T15:31:33.219Z,5.32
2022-10-28T15:34:02.422Z,6.75
2022-10-28T15:36:29.436Z,5.13
2022-10-28T15:38:58.765Z,9.38
2022-10-28T15:41:39.020Z,9.95
2022-10-28T15:44:26.765Z,6.80
2022-10-28T15:46:55.419Z,14.25
2022-10-28T15:49:34.013Z,14.40
2022-10-28T15:52:34.608Z,14.65
2022-10-28T15:55:41.403Z,8.80
2022-10-28T15:58:23.276Z,6.25
2022-10-28T16:01:00.789Z,11.85
2022-10-28T16:03:42.277Z,12.80
2022-10-28T16:06:26.332Z,10.93
2022-10-28T16:09:35.176Z,15.45
2022-10-28T16:12:26.616Z,10.75
2022-10-28T16:15:23.771Z,9.70
2022-10-28T16:18:02.790Z,19.08
2022-10-28T16:20:30.614Z,19.38
2022-10-28T16:23:00.436Z,16.35
2022-10-28T16:25:27.532Z,15.25
2022-10-28T16:27:55.620Z,20.33
2022-10-28T16:32:50.921Z,16.05
2022-10-28T16:35:41.287Z,18.15
2022-10-28T16:38:17.431Z,24.23
2022-10-28T16:40:51.826Z,18.65
2022-10-28T16:43:22.815Z,20.15
2022-10-28T16:45:54.032Z,21.10
2022-10-28T16:48:28.569Z,17.85
2022-10-28T16:51:04.218Z,19.92
2022-10-28T16:53:36.572Z,20.67
2022-10-28T16:56:12.571Z,14.52
2022-10-28T16:58:42.504Z,17.30
2022-10-28T17:01:20.227Z,9.27
2022-10-28T17:03:47.567Z,12.57
2022-10-28T17:09:23.807Z,17.83
2022-10-28T17:11:58.817Z,17.08
2022-10-28T17:14:30.859Z,16.70
2022-10-28T17:17:02.240Z,14.63
2022-10-28T17:19:37.684Z,10.57
2022-10-28T17:22:10.220Z,11.07
2022-10-28T17:24:37.711Z,9.93
2022-10-28T17:27:10.040Z,12.68
2022-10-28T17:32:31.437Z,16.80
2022-10-28T17:35:02.985Z,10.77
2022-10-28T17:37:41.769Z,10.98
2022-10-28T17:40:13.752Z,15.07
2022-10-28T17:42:49.959Z,17.42
2022-10-28T17:45:22.127Z,12.40
2022-10-28T17:48:10.160Z,11.65
2022-10-28T17:50:59.775Z,14.35
2022-10-28T17:57:12.946Z,17.45
2022-10-28T17:59:59.976Z,8.40
2022-10-28T18:03:39.201Z,8.63
2022-10-28T18:06:41.590Z,22.52
2022-10-28T18:09:22.409Z,13.75
2022-10-28T18:15:55.443Z,7.00
2022-10-28T18:19:04.507Z,8.30
2022-10-28T18:21:55.625Z,7.35
2022-10-28T18:24:32.388Z,10.63
2022-10-28T18:27:09.245Z,14.43
2022-10-28T18:30:23.334Z,8.83
2022-10-28T18:32:53.608Z,9.85
2022-10-28T18:35:25.240Z,11.93
2022-10-28T18:38:41.000Z,9.43
2022-10-28T18:44:06.083Z,6.53
2022-10-28T18:46:50.846Z,10.95
2022-10-28T18:49:35.707Z,7.63
2022-10-28T18:52:09.439Z,6.78
2022-10-28T18:54:46.834Z,7.45
2022-10-28T18:57:19.426Z,10.38
2022-10-28T19:03:02.771Z,11.30
2022-10-28T19:05:35.766Z,21.10
2022-10-28T19:08:16.024Z,17.67
2022-10-28T19:10:46.436Z,19.17
2022-10-28T19:15:56.741Z,9.70
2022-10-28T19:18:28.006Z,9.63
2022-10-28T19:21:06.483Z,8.98
2022-10-28T19:23:33.834Z,8.77
2022-10-28T19:26:04.482Z,7.93
2022-10-28T19:28:51.391Z,9.68
2022-10-28T19:31:24.181Z,7.65
2022-10-28T19:33:54.879Z,7.30
2022-10-28T19:36:26.968Z,10.07
2022-10-28T19:38:57.887Z,11.77
2022-10-28T19:41:31.184Z,12.20
2022-10-28T19:44:05.806Z,8.93
2022-10-28T19:46:39.318Z,6.28
2022-10-28T19:49:07.072Z,5.10
2022-10-28T19:51:37.029Z,4.85
2022-10-28T19:54:13.264Z,5.40
2022-10-28T19:56:51.351Z,3.70
2022-10-28T20:02:08.800Z,4.30
2022-10-28T20:05:15.184Z,4.50
2022-10-28T20:07:47.874Z,4.57
2022-10-28T20:10:20.650Z,4.78
2022-10-28T20:12:50.782Z,4.43
2022-10-28T20:15:24.806Z,3.58
2022-10-28T20:17:54.665Z,4.45
2022-10-28T20:20:21.761Z,5.18
2022-10-28T20:23:01.582Z,4.72
2022-10-28T20:25:37.311Z,4.30
2022-10-28T20:28:23.258Z,7.00
2022-10-28T20:31:04.998Z,10.02
2022-10-28T20:33:32.662Z,8.70
2022-10-28T20:36:04.940Z,6.68
2022-10-28T20:38:33.426Z,6.88
2022-10-28T20:41:03.325Z,6.50
2022-10-28T20:43:33.022Z,5.53
2022-10-28T20:46:04.185Z,5.40
2022-10-28T20:48:37.373Z,5.57
2022-10-28T20:51:06.838Z,5.28
2022-10-28T20:53:34.804Z,3.97
2022-10-28T20:56:02.047Z,4.10
2022-10-28T20:58:34.327Z,4.07
2022-10-28T21:01:10.646Z,4.80
2022-10-28T21:03:45.805Z,4.32
2022-10-28T21:06:34.079Z,4.00
2022-10-28T21:09:43.824Z,4.70
2022-10-28T21:12:33.858Z,4.75
2022-10-28T21:15:10.973Z,4.88
2022-10-28T21:22:19.294Z,5.43
2022-10-28T21:24:55.956Z,4.40
2022-10-28T21:27:29.562Z,4.15
2022-10-28T21:30:01.292Z,4.30
2022-10-28T21:32:41.983Z,4.25
2022-10-28T21:35:09.260Z,4.18
2022-10-28T21:37:41.211Z,4.30
2022-10-28T21:40:19.812Z,4.35
2022-10-28T21:42:58.456Z,3.90
2022-10-28T21:45:37.659Z,4.05
2022-10-28T21:48:17.633Z,4.28
2022-10-28T21:51:08.622Z,4.45
2022-10-28T21:54:36.629Z,5.15
2022-10-28T22:01:04.516Z,4.40
2022-10-28T22:04:10.360Z,4.95
2022-10-28T22:06:40.613Z,4.95
2022-10-28T22:09:19.298Z,4.88
2022-10-28T22:11:53.231Z,4.65
2022-10-28T22:14:25.611Z,4.13
2022-10-28T22:16:56.270Z,4.70
2022-10-28T22:20:11.579Z,4.78
2022-10-28T22:23:22.422Z,4.40
2022-10-28T22:26:09.672Z,4.85
2022-10-28T22:28:49.863Z,4.68
2022-10-28T22:31:33.384Z,4.90
2022-10-28T22:34:07.206Z,4.35
2022-10-28T22:36:49.194Z,4.85
2022-10-28T22:43:23.755Z,5.75
2022-10-28T22:46:01.617Z,3.88
2022-10-28T22:48:47.067Z,4.63
2022-10-28T22:51:21.584Z,4.70
2022-10-28T22:53:56.345Z,4.45
2022-10-28T22:56:28.011Z,4.47
2022-10-28T22:59:03.817Z,4.53
2022-10-28T23:01:34.463Z,5.10
2022-10-28T23:04:31.326Z,5.15
2022-10-28T23:07:03.052Z,4.57
2022-10-28T23:10:33.307Z,5.22
2022-10-28T23:20:46.129Z,4.18
2022-10-28T23:23:28.793Z,5.05
2022-10-28T23:26:05.633Z,4.00
2022-10-28T23:28:44.435Z,4.50
2022-10-28T23:31:22.983Z,4.57
2022-10-28T23:33:51.967Z,4.68
2022-10-28T23:36:26.173Z,4.80
2022-10-28T23:39:08.649Z,4.63
2022-10-28T23:41:39.298Z,4.57
2022-10-28T23:44:08.444Z,4.93
2022-10-28T23:49:46.330Z,4.70
2022-10-28T23:52:18.363Z,4.90
2022-10-28T23:54:47.941Z,4.55
2022-10-28T23:57:17.508Z,4.70
2022-10-28T23:59:54.481Z,4.15
